createdAt,value
2022-08-17T00:00:41.458Z,69.00
2022-08-17T00:03:09.479Z,69.30
2022-08-17T00:05:41.784Z,68.50
2022-08-17T00:08:10.479Z,70.20
2022-08-17T00:10:39.236Z,69.50
2022-08-17T00:13:09.359Z,70.90
2022-08-17T00:15:37.479Z,70.90
2022-08-17T00:19:02.080Z,70.10
2022-08-17T00:20:55.783Z,70.40
2022-08-17T00:23:24.398Z,69.60
2022-08-17T00:25:53.156Z,70.90
2022-08-17T00:28:21.774Z,69.80
2022-08-17T00:30:53.547Z,69.90
2022-08-17T00:33:28.365Z,70.00
2022-08-17T00:35:57.036Z,70.00
2022-08-17T00:38:26.848Z,69.80
2022-08-17T00:40:59.061Z,69.90
2022-08-17T00:43:32.766Z,70.00
2022-08-17T00:46:02.442Z,70.20
2022-08-17T00:48:32.805Z,70.20
2022-08-17T00:51:10.177Z,70.40
2022-08-17T00:53:41.844Z,70.90
2022-08-17T00:56:14.034Z,70.80
2022-08-17T00:58:42.649Z,70.90
2022-08-17T01:01:12.819Z,70.50
2022-08-17T01:03:52.699Z,70.00
2022-08-17T01:06:28.695Z,73.10
2022-08-17T01:08:59.365Z,70.60
2022-08-17T01:11:27.540Z,70.60
2022-08-17T01:13:55.732Z,70.50
2022-08-17T01:16:26.239Z,70.30
2022-08-17T01:18:59.466Z,73.40
2022-08-17T01:21:33.661Z,70.50
2022-08-17T01:24:03.363Z,71.40
2022-08-17T01:26:33.883Z,69.80
2022-08-17T01:29:03.976Z,70.30
2022-08-17T01:31:35.721Z,70.30
2022-08-17T01:34:08.400Z,70.50
2022-08-17T01:36:37.178Z,72.50
2022-08-17T01:39:07.815Z,71.40
2022-08-17T01:41:36.928Z,73.80
2022-08-17T01:44:07.378Z,72.10
2022-08-17T01:46:38.483Z,71.30
2022-08-17T01:49:08.880Z,71.60
2022-08-17T01:51:37.209Z,73.40
2022-08-17T01:54:10.910Z,72.10
2022-08-17T01:56:42.360Z,73.50
2022-08-17T01:59:10.498Z,72.30
2022-08-17T02:01:39.123Z,72.80
2022-08-17T02:04:09.013Z,72.80
2022-08-17T02:06:45.237Z,72.90
2022-08-17T02:09:25.471Z,73.90
2022-08-17T02:11:54.314Z,74.30
2022-08-17T02:14:22.625Z,74.70
2022-08-17T02:16:50.794Z,74.00
2022-08-17T02:19:19.186Z,74.30
2022-08-17T02:21:49.627Z,75.90
2022-08-17T02:24:59.440Z,73.80
2022-08-17T02:27:13.121Z,73.60
2022-08-17T02:29:40.992Z,73.60
2022-08-17T02:32:28.185Z,72.20
2022-08-17T02:34:56.860Z,72.70
2022-08-17T02:37:25.458Z,72.00
2022-08-17T02:39:53.438Z,75.30
2022-08-17T02:42:27.666Z,72.80
2022-08-17T02:44:55.585Z,72.30
2022-08-17T02:47:23.421Z,73.40
2022-08-17T02:49:54.180Z,72.90
2022-08-17T02:52:43.697Z,74.50
2022-08-17T02:55:14.468Z,73.00
2022-08-17T02:57:43.958Z,72.40
2022-08-17T03:00:15.639Z,72.60
2022-08-17T03:02:45.625Z,73.10
2022-08-17T03:05:17.396Z,73.10
2022-08-17T03:07:45.309Z,74.00
2022-08-17T03:10:14.167Z,72.60
2022-08-17T03:12:45.488Z,73.00
2022-08-17T03:15:16.495Z,73.00
2022-08-17T03:17:48.030Z,73.50
2022-08-17T03:20:17.548Z,72.70
2022-08-17T03:22:53.519Z,72.30
2022-08-17T03:25:25.904Z,72.70
2022-08-17T03:27:56.742Z,72.80
2022-08-17T03:30:26.567Z,72.80
2022-08-17T03:32:57.359Z,72.60
2022-08-17T03:35:29.525Z,72.80
2022-08-17T03:38:00.730Z,73.50
2022-08-17T03:40:55.530Z,74.70
2022-08-17T03:43:20.992Z,72.70
2022-08-17T03:46:10.979Z,72.80
2022-08-17T03:49:09.389Z,72.30
2022-08-17T03:51:55.122Z,72.10
2022-08-17T03:54:40.943Z,72.40
2022-08-17T03:57:12.476Z,73.80
2022-08-17T03:59:42.535Z,74.10
2022-08-17T04:02:14.377Z,74.20
2022-08-17T04:04:43.916Z,73.00
2022-08-17T04:07:12.664Z,72.80
2022-08-17T04:09:42.957Z,72.70
2022-08-17T04:12:15.582Z,72.60
2022-08-17T04:14:52.793Z,73.00
2022-08-17T04:17:23.594Z,72.60
2022-08-17T04:19:52.171Z,73.30
2022-08-17T04:22:33.155Z,73.10
2022-08-17T04:25:08.981Z,73.80
2022-08-17T04:27:37.917Z,73.40
2022-08-17T04:30:09.335Z,73.00
2022-08-17T04:32:59.376Z,73.30
2022-08-17T04:35:38.088Z,73.40
2022-08-17T04:38:07.551Z,73.20
2022-08-17T04:40:53.831Z,73.30
2022-08-17T04:43:24.587Z,73.80
2022-08-17T04:45:57.161Z,73.40
2022-08-17T04:48:32.220Z,75.00
2022-08-17T04:51:06.876Z,73.60
2022-08-17T04:53:34.874Z,75.20
2022-08-17T04:56:03.034Z,73.80
2022-08-17T04:58:30.927Z,74.00
2022-08-17T05:01:00.437Z,74.40
2022-08-17T05:03:28.735Z,74.60
2022-08-17T05:05:56.730Z,76.70
2022-08-17T05:08:26.947Z,76.50
2022-08-17T05:10:54.959Z,76.50
2022-08-17T05:13:25.533Z,76.40
2022-08-17T05:15:55.823Z,76.80
2022-08-17T05:18:25.815Z,77.00
2022-08-17T05:20:54.166Z,77.00
2022-08-17T05:23:24.563Z,76.90
2022-08-17T05:25:55.651Z,77.20
2022-08-17T05:28:27.354Z,77.40
2022-08-17T05:30:57.355Z,77.20
2022-08-17T05:33:29.679Z,79.20
2022-08-17T05:35:59.475Z,77.60
2022-08-17T05:38:29.471Z,77.40
2022-08-17T05:40:58.068Z,77.40
2022-08-17T05:43:27.499Z,79.20
2022-08-17T05:46:03.411Z,77.70
2022-08-17T05:48:39.929Z,78.20
2022-08-17T05:51:28.503Z,78.40
2022-08-17T05:54:08.340Z,78.90
2022-08-17T05:56:52.708Z,78.40
2022-08-17T05:59:30.519Z,78.40
2022-08-17T06:02:05.122Z,78.40
2022-08-17T06:04:49.097Z,78.10
2022-08-17T06:07:26.447Z,78.00
2022-08-17T06:10:01.786Z,78.10
2022-08-17T06:12:41.600Z,77.60
2022-08-17T06:15:26.125Z,79.00
2022-08-17T06:17:58.507Z,78.30
2022-08-17T06:20:33.197Z,77.90
2022-08-17T06:23:06.326Z,78.20
2022-08-17T06:25:39.871Z,79.00
2022-08-17T06:28:13.971Z,80.30
2022-08-17T06:31:00.292Z,78.40
2022-08-17T06:33:34.135Z,78.90
2022-08-17T06:36:11.345Z,79.00
2022-08-17T06:38:53.178Z,80.30
2022-08-17T06:41:31.392Z,79.10
2022-08-17T06:44:10.792Z,79.20
2022-08-17T06:46:41.047Z,79.20
2022-08-17T06:49:21.774Z,79.10
2022-08-17T06:51:55.455Z,78.60
2022-08-17T06:54:34.100Z,81.80
2022-08-17T06:57:14.440Z,79.20
2022-08-17T06:59:54.995Z,79.30
2022-08-17T07:02:51.989Z,79.40
2022-08-17T07:05:23.397Z,79.20
2022-08-17T07:08:03.814Z,79.20
2022-08-17T07:10:37.622Z,79.70
2022-08-17T07:13:25.637Z,79.50
2022-08-17T07:16:00.221Z,78.60
2022-08-17T07:18:32.973Z,79.60
2022-08-17T07:21:11.945Z,79.20
2022-08-17T07:23:54.904Z,79.60
2022-08-17T07:26:25.025Z,79.70
2022-08-17T07:28:53.113Z,79.40
2022-08-17T07:31:21.023Z,80.00
2022-08-17T07:34:02.855Z,79.20
2022-08-17T07:36:33.782Z,79.70
2022-08-17T07:39:05.260Z,79.10
2022-08-17T07:41:57.120Z,79.70
2022-08-17T07:44:27.557Z,79.70
2022-08-17T07:47:13.431Z,80.20
2022-08-17T07:49:45.975Z,79.20
2022-08-17T07:52:50.572Z,79.60
2022-08-17T07:55:29.432Z,79.70
2022-08-17T07:58:00.062Z,79.50
2022-08-17T08:00:32.502Z,79.30
2022-08-17T08:03:15.470Z,79.20
2022-08-17T08:05:52.655Z,80.30
2022-08-17T08:08:28.454Z,82.60
2022-08-17T08:11:06.493Z,80.20
2022-08-17T08:13:36.159Z,80.20
2022-08-17T08:16:24.325Z,80.10
2022-08-17T08:18:57.615Z,80.60
2022-08-17T08:21:41.826Z,80.20
2022-08-17T08:24:40.799Z,80.20
2022-08-17T08:27:21.795Z,80.30
2022-08-17T08:29:58.009Z,80.30
2022-08-17T08:32:40.109Z,80.80
2022-08-17T08:35:14.535Z,79.60
2022-08-17T08:37:52.761Z,78.80
2022-08-17T08:40:36.267Z,77.50
2022-08-17T08:43:20.704Z,76.80
2022-08-17T08:45:56.640Z,75.50
2022-08-17T08:48:56.396Z,75.20
2022-08-17T08:51:41.171Z,74.90
2022-08-17T08:54:26.627Z,74.00
2022-08-17T08:57:23.114Z,74.40
2022-08-17T09:00:12.692Z,75.10
2022-08-17T09:03:14.246Z,73.80
2022-08-17T09:06:02.762Z,74.30
2022-08-17T09:08:42.748Z,73.80
2022-08-17T09:11:17.253Z,72.70
2022-08-17T09:13:54.679Z,72.70
2022-08-17T09:16:29.889Z,72.90
2022-08-17T09:19:05.177Z,72.70
2022-08-17T09:21:48.156Z,72.70
2022-08-17T09:24:23.962Z,74.60
2022-08-17T09:26:59.062Z,72.40
2022-08-17T09:29:29.512Z,72.60
2022-08-17T09:32:01.717Z,72.30
2022-08-17T09:34:36.003Z,72.80
2022-08-17T09:37:23.165Z,73.30
2022-08-17T09:39:59.182Z,73.90
2022-08-17T09:42:33.752Z,74.50
2022-08-17T09:45:15.324Z,74.30
2022-08-17T09:47:51.256Z,75.10
2022-08-17T09:50:57.373Z,75.30
2022-08-17T09:53:12.341Z,75.40
2022-08-17T09:55:57.909Z,75.50
2022-08-17T09:58:37.137Z,77.00
2022-08-17T10:01:22.996Z,76.70
2022-08-17T10:04:07.759Z,77.10
2022-08-17T10:06:43.008Z,78.00
2022-08-17T10:09:20.157Z,78.00
2022-08-17T10:12:11.656Z,78.00
2022-08-17T10:14:46.310Z,79.50
2022-08-17T10:17:28.968Z,77.80
2022-08-17T10:20:04.339Z,77.30
2022-08-17T10:22:59.856Z,77.50
2022-08-17T10:25:54.973Z,77.80
2022-08-17T10:28:29.402Z,79.80
2022-08-17T10:31:31.074Z,79.00
2022-08-17T10:34:03.417Z,78.80
2022-08-17T10:36:43.162Z,79.70
2022-08-17T10:39:23.565Z,78.10
2022-08-17T10:41:56.814Z,77.50
2022-08-17T10:44:39.802Z,80.10
2022-08-17T10:47:12.684Z,78.50
2022-08-17T10:49:47.482Z,76.40
2022-08-17T10:52:52.295Z,76.40
2022-08-17T10:55:21.214Z,76.20
2022-08-17T10:57:51.165Z,75.50
2022-08-17T11:01:12.712Z,76.20
2022-08-17T11:03:54.694Z,75.30
2022-08-17T11:06:30.576Z,76.00
2022-08-17T11:09:27.820Z,75.40
2022-08-17T11:12:27.669Z,74.70
2022-08-17T11:15:38.381Z,74.20
2022-08-17T11:18:19.092Z,74.10
2022-08-17T11:21:20.251Z,75.30
2022-08-17T11:24:19.908Z,74.70
2022-08-17T11:27:04.378Z,75.50
2022-08-17T11:29:37.087Z,75.60
2022-08-17T11:32:11.568Z,75.40
2022-08-17T11:34:40.745Z,76.00
2022-08-17T11:37:33.881Z,77.00
2022-08-17T11:40:48.681Z,77.50
2022-08-17T11:43:45.621Z,77.80
2022-08-17T11:46:25.811Z,77.30
2022-08-17T11:49:21.331Z,78.20
2022-08-17T11:52:10.650Z,78.70
2022-08-17T11:54:46.023Z,78.20
2022-08-17T11:58:06.361Z,77.60
2022-08-17T12:00:57.716Z,78.00
2022-08-17T12:03:57.745Z,77.80
2022-08-17T12:06:41.062Z,79.40
2022-08-17T12:09:14.563Z,79.90
2022-08-17T12:12:01.578Z,79.40
2022-08-17T12:15:07.983Z,81.50
2022-08-17T12:17:40.503Z,79.40
2022-08-17T12:20:24.237Z,79.60
2022-08-17T12:23:01.262Z,79.80
2022-08-17T12:25:36.196Z,80.40
2022-08-17T12:28:07.592Z,80.50
2022-08-17T12:30:37.389Z,80.30
2022-08-17T12:33:13.330Z,80.20
2022-08-17T12:35:59.744Z,80.40
2022-08-17T12:38:33.188Z,80.50
2022-08-17T12:41:23.383Z,80.30
2022-08-17T12:44:01.437Z,80.70
2022-08-17T12:46:30.469Z,83.40
2022-08-17T12:49:14.866Z,81.30
2022-08-17T12:51:47.151Z,82.70
2022-08-17T12:54:29.150Z,81.90
2022-08-17T12:56:58.635Z,83.40
2022-08-17T12:59:29.842Z,82.90
2022-08-17T13:01:58.901Z,82.60
2022-08-17T13:04:29.685Z,81.90
2022-08-17T13:07:00.147Z,81.70
2022-08-17T13:09:35.691Z,81.80
2022-08-17T13:12:08.305Z,82.00
2022-08-17T13:14:36.418Z,81.60
2022-08-17T13:17:11.124Z,81.90
2022-08-17T13:19:49.718Z,82.20
2022-08-17T13:22:23.003Z,82.60
2022-08-17T13:24:54.409Z,82.70
2022-08-17T13:27:25.088Z,82.80
2022-08-17T13:29:57.195Z,82.60
2022-08-17T13:32:36.102Z,82.70
2022-08-17T13:35:36.467Z,85.40
2022-08-17T13:38:09.873Z,83.60
2022-08-17T13:40:42.095Z,83.50
2022-08-17T13:43:11.607Z,84.00
2022-08-17T13:45:50.510Z,83.80
2022-08-17T13:48:28.880Z,84.70
2022-08-17T13:51:18.363Z,84.50
2022-08-17T13:53:53.748Z,87.00
2022-08-17T13:57:12.334Z,84.00
2022-08-17T13:59:54.333Z,84.40
2022-08-17T14:02:27.593Z,83.90
2022-08-17T14:04:56.655Z,83.90
2022-08-17T14:07:33.756Z,84.80
2022-08-17T14:10:06.108Z,84.50
2022-08-17T14:12:35.608Z,84.30
2022-08-17T14:15:03.574Z,84.30
2022-08-17T14:17:36.566Z,84.00
2022-08-17T14:20:09.145Z,84.70
2022-08-17T14:22:43.860Z,85.00
2022-08-17T14:25:13.840Z,85.10
2022-08-17T14:27:53.433Z,85.50
2022-08-17T14:30:24.151Z,84.60
2022-08-17T14:32:52.838Z,86.30
2022-08-17T14:35:23.297Z,84.80
2022-08-17T14:37:53.957Z,84.80
2022-08-17T14:40:24.396Z,84.70
2022-08-17T14:42:53.957Z,84.90
2022-08-17T14:45:29.938Z,84.80
2022-08-17T14:48:05.480Z,85.60
2022-08-17T14:50:35.553Z,84.50
2022-08-17T14:53:06.445Z,84.30
2022-08-17T14:55:35.273Z,84.40
2022-08-17T14:58:03.932Z,84.50
2022-08-17T15:00:32.352Z,84.10
2022-08-17T15:03:01.669Z,86.10
2022-08-17T15:05:31.681Z,84.30
2022-08-17T15:08:00.789Z,84.30
2022-08-17T15:10:31.343Z,83.80
2022-08-17T15:13:00.342Z,84.00
2022-08-17T15:15:29.226Z,84.60
2022-08-17T15:17:57.623Z,83.60
2022-08-17T15:20:28.977Z,83.70
2022-08-17T15:22:58.701Z,84.80
2022-08-17T15:25:28.475Z,84.50
2022-08-17T15:27:57.784Z,84.10
2022-08-17T15:30:27.063Z,83.70
2022-08-17T15:32:55.804Z,84.00
2022-08-17T15:35:27.920Z,83.80
2022-08-17T15:38:04.677Z,84.10
2022-08-17T15:40:36.922Z,84.00
2022-08-17T15:43:07.864Z,83.90
2022-08-17T15:45:36.060Z,85.20
2022-08-17T15:48:04.430Z,83.60
2022-08-17T15:50:32.479Z,83.60
2022-08-17T15:53:02.026Z,83.70
2022-08-17T15:55:32.146Z,83.40
2022-08-17T15:58:00.863Z,83.80
2022-08-17T16:00:30.386Z,83.80
2022-08-17T16:03:15.987Z,83.80
2022-08-17T16:05:47.611Z,83.90
2022-08-17T16:08:20.633Z,83.90
2022-08-17T16:10:49.241Z,84.60
2022-08-17T16:13:18.252Z,84.40
2022-08-17T16:15:53.010Z,85.10
2022-08-17T16:18:28.371Z,86.00
2022-08-17T16:20:56.448Z,84.60
2022-08-17T16:23:24.623Z,84.30
2022-08-17T16:25:54.275Z,84.00
2022-08-17T16:28:23.414Z,83.90
2022-08-17T16:31:07.997Z,85.00
2022-08-17T16:33:40.430Z,83.60
2022-08-17T16:36:09.155Z,84.80
2022-08-17T16:38:38.489Z,81.50
2022-08-17T16:41:07.672Z,83.30
2022-08-17T16:43:35.624Z,84.10
2022-08-17T16:46:05.181Z,83.00
2022-08-17T16:48:33.060Z,83.10
2022-08-17T16:51:04.060Z,83.80
2022-08-17T16:53:32.881Z,84.90
2022-08-17T16:56:00.956Z,85.20
2022-08-17T16:58:29.050Z,84.70
2022-08-17T17:00:59.309Z,83.40
2022-08-17T17:03:31.212Z,83.50
2022-08-17T17:06:07.149Z,83.60
2022-08-17T17:08:40.821Z,83.80
2022-08-17T17:11:15.509Z,83.20
2022-08-17T17:13:47.836Z,83.90
2022-08-17T17:16:21.668Z,82.90
2022-08-17T17:19:05.111Z,82.70
2022-08-17T17:21:42.447Z,84.40
2022-08-17T17:24:15.201Z,82.50
2022-08-17T17:27:00.146Z,82.50
2022-08-17T17:29:48.326Z,82.60
2022-08-17T17:32:21.808Z,82.50
2022-08-17T17:34:55.598Z,84.20
2022-08-17T17:37:32.519Z,83.20
2022-08-17T17:40:04.912Z,85.00
2022-08-17T17:42:39.403Z,83.90
2022-08-17T17:45:15.961Z,83.70
2022-08-17T17:47:44.698Z,83.40
2022-08-17T17:50:14.405Z,83.30
2022-08-17T17:52:49.327Z,83.00
2022-08-17T17:55:34.560Z,83.30
2022-08-17T17:58:16.987Z,83.30
2022-08-17T18:00:52.293Z,83.30
2022-08-17T18:03:32.915Z,82.90
2022-08-17T18:06:14.933Z,83.30
2022-08-17T18:08:58.907Z,83.30
2022-08-17T18:11:51.382Z,83.50
2022-08-17T18:14:33.704Z,83.60
2022-08-17T18:17:02.515Z,83.90
2022-08-17T18:19:32.524Z,84.10
2022-08-17T18:22:08.121Z,84.50
2022-08-17T18:24:44.969Z,84.30
2022-08-17T18:27:23.406Z,84.40
2022-08-17T18:29:53.191Z,85.60
2022-08-17T18:32:36.441Z,84.50
2022-08-17T18:35:30.156Z,84.00
2022-08-17T18:38:20.461Z,84.70
2022-08-17T18:40:59.835Z,84.80
2022-08-17T18:43:44.522Z,84.80
2022-08-17T18:46:28.810Z,86.40
2022-08-17T18:48:59.852Z,85.20
2022-08-17T18:51:42.464Z,84.90
2022-08-17T18:54:19.692Z,85.30
2022-08-17T18:56:53.230Z,85.30
2022-08-17T18:59:35.672Z,85.60
2022-08-17T19:02:43.389Z,85.80
2022-08-17T19:05:14.194Z,88.40
2022-08-17T19:07:44.964Z,85.80
2022-08-17T19:10:24.020Z,86.00
2022-08-17T19:13:00.787Z,87.50
2022-08-17T19:15:35.443Z,87.20
2022-08-17T19:18:14.730Z,86.60
2022-08-17T19:20:47.132Z,86.40
2022-08-17T19:23:22.058Z,86.10
2022-08-17T19:25:54.011Z,86.00
2022-08-17T19:28:25.777Z,86.50
2022-08-17T19:30:58.098Z,86.10
2022-08-17T19:33:27.260Z,86.90
2022-08-17T19:36:04.134Z,86.40
2022-08-17T19:38:46.663Z,86.90
2022-08-17T19:41:22.715Z,87.20
2022-08-17T19:44:34.522Z,85.30
2022-08-17T19:47:19.604Z,87.80
2022-08-17T19:50:08.985Z,87.10
2022-08-17T19:52:53.612Z,87.50
2022-08-17T19:55:32.721Z,87.60
2022-08-17T19:58:10.935Z,87.60
2022-08-17T20:00:46.886Z,88.40
2022-08-17T20:03:20.092Z,87.60
2022-08-17T20:06:11.422Z,88.00
2022-08-17T20:08:41.644Z,87.80
2022-08-17T20:11:11.733Z,87.70
2022-08-17T20:13:44.282Z,88.10
2022-08-17T20:16:13.371Z,88.30
2022-08-17T20:18:50.500Z,88.30
2022-08-17T20:21:22.785Z,88.50
2022-08-17T20:23:55.013Z,88.30
2022-08-17T20:26:27.416Z,88.30
2022-08-17T20:29:37.676Z,88.20
2022-08-17T20:32:26.031Z,88.50
2022-08-17T20:35:28.270Z,88.50
2022-08-17T20:37:59.136Z,88.40
2022-08-17T20:40:33.644Z,88.00
2022-08-17T20:43:40.018Z,87.90
2022-08-17T20:46:18.783Z,88.50
2022-08-17T20:48:50.578Z,90.10
2022-08-17T20:51:29.917Z,89.20
2022-08-17T20:54:02.351Z,89.30
2022-08-17T20:56:49.093Z,89.00
2022-08-17T20:59:52.173Z,89.10
2022-08-17T21:02:24.707Z,88.50
2022-08-17T21:05:15.376Z,88.60
2022-08-17T21:07:54.225Z,89.00
2022-08-17T21:10:41.652Z,88.90
2022-08-17T21:13:48.545Z,88.50
2022-08-17T21:16:38.673Z,89.00
2022-08-17T21:19:22.080Z,89.00
2022-08-17T21:22:01.732Z,89.90
2022-08-17T21:24:43.497Z,88.60
2022-08-17T21:27:24.127Z,88.80
2022-08-17T21:30:12.202Z,90.30
2022-08-17T21:32:42.247Z,88.40
2022-08-17T21:35:30.015Z,88.90
2022-08-17T21:38:04.169Z,89.50
2022-08-17T21:40:34.743Z,90.20
2022-08-17T21:43:16.113Z,88.90
2022-08-17T21:45:44.090Z,89.00
2022-08-17T21:48:15.462Z,89.80
2022-08-17T21:50:48.468Z,89.00
2022-08-17T21:53:30.694Z,89.00
2022-08-17T21:56:01.274Z,89.10
2022-08-17T21:58:33.269Z,88.80
2022-08-17T22:01:23.378Z,88.60
2022-08-17T22:04:04.950Z,88.80
2022-08-17T22:06:38.986Z,88.70
2022-08-17T22:09:14.920Z,88.50
2022-08-17T22:11:55.228Z,88.60
2022-08-17T22:14:25.565Z,90.40
2022-08-17T22:17:17.028Z,88.80
2022-08-17T22:19:48.848Z,88.50
2022-08-17T22:22:34.395Z,88.10
2022-08-17T22:25:05.146Z,88.50
2022-08-17T22:27:51.999Z,89.70
2022-08-17T22:30:38.736Z,88.20
2022-08-17T22:33:35.750Z,87.80
2022-08-17T22:36:25.036Z,87.90
2022-08-17T22:38:55.769Z,87.70
2022-08-17T22:41:51.106Z,87.70
2022-08-17T22:44:25.188Z,87.90
2022-08-17T22:47:03.151Z,87.60
2022-08-17T22:49:38.510Z,88.00
2022-08-17T22:52:32.371Z,87.90
2022-08-17T22:55:30.411Z,88.10
2022-08-17T22:58:16.452Z,88.40
2022-08-17T23:00:46.516Z,88.20
2022-08-17T23:03:17.712Z,88.30
2022-08-17T23:05:48.796Z,88.10
2022-08-17T23:08:21.263Z,88.00
2022-08-17T23:10:50.821Z,88.10
2022-08-17T23:13:21.214Z,88.00
2022-08-17T23:15:50.491Z,88.10
2022-08-17T23:18:18.332Z,89.20
2022-08-17T23:20:46.488Z,89.10
2022-08-17T23:23:15.727Z,88.60
2022-08-17T23:25:46.220Z,88.80
2022-08-17T23:28:15.397Z,88.60
2022-08-17T23:30:46.608Z,88.40
2022-08-17T23:33:19.600Z,88.40
2022-08-17T23:35:47.527Z,88.40
2022-08-17T23:38:15.565Z,88.00
2022-08-17T23:40:43.397Z,87.90
2022-08-17T23:43:25.618Z,88.00
2022-08-17T23:45:57.867Z,88.40
2022-08-17T23:48:30.359Z,88.20
2022-08-17T23:51:08.590Z,88.60
2022-08-17T23:53:38.062Z,87.80
2022-08-17T23:56:10.132Z,87.70
2022-08-17T23:58:41.876Z,87.50
